Apollo — V7JF8 — position and weather

sailwx.info

Track history (hours):
 
Tides and Currents Weather Stations Pressure Air Temp Water Temp Dewpoint Dewpoint Depression Visibility Wind Speed Wind Dir Waves Ship Positions

Apollo

Last reported at 2018-Feb-12 12:55 UTC. Time now 2018-Feb-20 04:13 UTC.
Position N 23°14' E 117°25'.

Length 225 m; draft 14.1 m.

Type: Cargo ship. MMSI: 538002510.

Date/timePositionNaut miles runAvg speedWind from/ knotsBaromVisibWave heightAir tempDewpointWater temp
2018-Feb-12 12:55N 23°14' E 117°25'611.6
2018-Feb-12 12:26N 23°17' E 117°30'511.5
2018-Feb-12 12:01N 23°20' E 117°34'611.3
2018-Feb-12 11:30N 23°23' E 117°39'611.3
2018-Feb-12 11:01N 23°27' E 117°43'611.3
2018-Feb-12 10:30N 23°30' E 117°48'611.6
2018-Feb-12 10:01N 23°34' E 117°53'711.9
2018-Feb-12 09:27N 23°38' E 117°59'511.7
2018-Feb-12 09:00N 23°42' E 118°03'611.9
2018-Feb-12 08:30N 23°45' E 118°08'612.3
2018-Feb-12 08:00N 23°49' E 118°14'712.3
2018-Feb-12 07:27N 23°53' E 118°20'612.6
2018-Feb-12 07:00N 23°55' E 118°25'712.7
2018-Feb-12 06:27N 23°59' E 118°32'612.9
2018-Feb-12 06:00N 24°03' E 118°36'713.4
2018-Feb-12 05:30N 24°08' E 118°42'713.4
2018-Feb-12 05:00N 24°12' E 118°47'  
Track history (hours):
 
Tides and Currents Weather Stations Pressure Air Temp Water Temp Dewpoint Dewpoint Depression Visibility Wind Speed Wind Dir Waves Ship Positions

Apollo

Last reported at 2018-Feb-12 12:55 UTC. Time now 2018-Feb-20 04:13 UTC.
Position N 23°14' E 117°25'.

Length 225 m; draft 14.1 m.

Type: Cargo ship. MMSI: 538002510.

Date/timePositionNaut miles runAvg speedWind from/ knotsBaromVisibWave heightAir tempDewpointWater temp
2018-Feb-12 12:55N 23°14' E 117°25'611.6
2018-Feb-12 12:26N 23°17' E 117°30'511.5
2018-Feb-12 12:01N 23°20' E 117°34'611.3
2018-Feb-12 11:30N 23°23' E 117°39'611.3
2018-Feb-12 11:01N 23°27' E 117°43'611.3
2018-Feb-12 10:30N 23°30' E 117°48'611.6
2018-Feb-12 10:01N 23°34' E 117°53'711.9
2018-Feb-12 09:27N 23°38' E 117°59'511.7
2018-Feb-12 09:00N 23°42' E 118°03'611.9
2018-Feb-12 08:30N 23°45' E 118°08'612.3
2018-Feb-12 08:00N 23°49' E 118°14'712.3
2018-Feb-12 07:27N 23°53' E 118°20'612.6
2018-Feb-12 07:00N 23°55' E 118°25'712.7
2018-Feb-12 06:27N 23°59' E 118°32'612.9
2018-Feb-12 06:00N 24°03' E 118°36'713.4
2018-Feb-12 05:30N 24°08' E 118°42'713.4
2018-Feb-12 05:00N 24°12' E 118°47'  

Dump ship's entire track history